Yonago, Japan
Current Conditions -  °F | °C
As of 12:00 AM on Tuesday 23 Dec 2014 (Local Time) from RJOH Reporting Station
Broken Clouds Broken Clouds  
Wind Chill: 37°   Ceiling: 4000
Heat Index: 45°   Visibility: 6mi
Dew Point: 27°   Wind: 16mph
Humidity: 49%   Direction: 270°W
Pressure: 30.15"   Gusts: NA
Location:  35.44°N, 133.34°E
Report Text: RJOH 221500Z 27014KT 9999 FEW030 BKN040 BKN050 07/M03 Q1021
Loading
Personal Weather Stations






























Interactive Weather Map New forecast layout! Learn more

10-Day Weather Forecast

Advertisements
Track Severe Weather on mobile